createdAt,value
2023-04-12T00:02:44.871Z,3.03
2023-04-12T00:05:48.489Z,1.35
2023-04-12T00:08:51.626Z,2.95
2023-04-12T00:11:54.112Z,1.50
2023-04-12T00:14:56.522Z,1.90
2023-04-12T00:17:59.027Z,0.43
2023-04-12T00:21:02.138Z,0.43
2023-04-12T00:24:04.987Z,0.10
2023-04-12T00:27:08.307Z,0.00
2023-04-12T00:30:12.243Z,0.43
2023-04-12T00:33:14.694Z,0.30
2023-04-12T00:36:17.296Z,0.40
2023-04-12T00:39:19.825Z,0.30
2023-04-12T00:42:22.986Z,0.30
2023-04-12T00:45:25.378Z,0.08
2023-04-12T00:48:28.955Z,0.00
2023-04-12T00:51:33.229Z,0.20
2023-04-12T00:54:36.465Z,0.00
2023-04-12T00:57:40.110Z,0.30
2023-04-12T01:00:50.131Z,0.17
2023-04-12T01:03:54.376Z,0.30
2023-04-12T01:07:45.002Z,0.17
2023-04-12T01:11:14.133Z,0.08
2023-04-12T01:14:36.879Z,0.20
2023-04-12T01:17:47.804Z,0.13
2023-04-12T01:21:03.820Z,0.03
2023-04-12T01:24:32.398Z,0.10
2023-04-12T01:27:43.414Z,0.32
2023-04-12T01:30:48.006Z,0.20
2023-04-12T01:33:53.291Z,0.22
2023-04-12T01:36:58.402Z,0.17
2023-04-12T01:40:01.611Z,0.25
2023-04-12T01:43:16.329Z,0.35
2023-04-12T01:46:22.648Z,0.20
2023-04-12T01:49:33.672Z,0.73
2023-04-12T01:52:41.174Z,0.10
2023-04-12T01:55:48.609Z,0.27
2023-04-12T01:58:53.546Z,1.33
2023-04-12T02:01:56.896Z,0.70
2023-04-12T02:05:00.547Z,0.22
2023-04-12T02:08:04.143Z,0.40
2023-04-12T02:11:11.230Z,0.80
2023-04-12T02:14:13.712Z,0.10
2023-04-12T02:17:16.128Z,0.90
2023-04-12T02:20:19.787Z,0.40
2023-04-12T02:23:22.267Z,0.43
2023-04-12T02:26:24.691Z,0.43
2023-04-12T02:29:27.428Z,0.43
2023-04-12T02:32:30.968Z,0.73
2023-04-12T02:35:33.996Z,0.20
2023-04-12T02:38:42.740Z,0.10
2023-04-12T02:41:45.982Z,1.05
2023-04-12T02:44:49.257Z,0.20
2023-04-12T02:47:51.819Z,0.40
2023-04-12T02:50:58.921Z,1.27
2023-04-12T02:54:02.657Z,0.47
2023-04-12T02:57:16.281Z,0.20
2023-04-12T03:00:21.836Z,0.50
2023-04-12T03:03:32.195Z,0.57
2023-04-12T03:06:52.402Z,0.82
2023-04-12T03:09:58.233Z,0.68
2023-04-12T03:13:01.622Z,1.25
2023-04-12T03:16:22.983Z,0.28
2023-04-12T03:19:33.029Z,0.43
2023-04-12T03:22:36.763Z,0.85
2023-04-12T03:25:42.664Z,0.43
2023-04-12T03:29:14.263Z,0.60
2023-04-12T03:32:18.114Z,1.02
2023-04-12T03:35:25.975Z,0.70
2023-04-12T03:38:28.666Z,0.90
2023-04-12T03:41:31.593Z,1.25
2023-04-12T03:44:37.626Z,1.25
2023-04-12T03:47:45.384Z,2.97
2023-04-12T03:50:48.745Z,1.97
2023-04-12T03:53:57.309Z,1.30
2023-04-12T03:57:00.230Z,1.00
2023-04-12T04:00:16.102Z,1.57
2023-04-12T04:03:35.195Z,0.47
2023-04-12T04:06:46.463Z,0.73
2023-04-12T04:09:50.097Z,1.23
2023-04-12T04:12:52.698Z,1.27
2023-04-12T04:16:06.057Z,0.80
2023-04-12T04:19:09.121Z,0.80
2023-04-12T04:22:13.930Z,1.70
2023-04-12T04:25:16.635Z,1.40
2023-04-12T04:28:25.380Z,1.30
2023-04-12T04:31:34.629Z,2.33
2023-04-12T04:34:38.779Z,1.60
2023-04-12T04:37:48.386Z,1.23
2023-04-12T04:40:54.033Z,1.58
2023-04-12T04:44:01.084Z,1.27
2023-04-12T04:47:06.878Z,1.42
2023-04-12T04:50:09.598Z,2.40
2023-04-12T04:53:14.096Z,1.83
2023-04-12T04:56:16.551Z,2.90
2023-04-12T04:59:20.978Z,1.00
2023-04-12T05:02:23.566Z,2.57
2023-04-12T05:05:26.175Z,1.20
2023-04-12T05:08:35.800Z,1.48
2023-04-12T05:11:39.113Z,1.55
2023-04-12T05:14:51.281Z,2.22
2023-04-12T05:17:54.409Z,1.83
2023-04-12T05:21:02.663Z,2.03
2023-04-12T05:24:05.915Z,1.20
2023-04-12T05:27:10.669Z,1.70
2023-04-12T05:30:13.401Z,3.13
2023-04-12T05:33:16.069Z,1.87
2023-04-12T05:36:22.567Z,3.38
2023-04-12T05:39:27.297Z,1.75
2023-04-12T05:42:30.280Z,3.25
2023-04-12T05:45:34.004Z,3.30
2023-04-12T05:48:37.464Z,2.28
2023-04-12T05:51:41.204Z,2.55
2023-04-12T05:54:48.151Z,2.20
2023-04-12T05:57:52.972Z,2.35
2023-04-12T06:00:57.052Z,2.20
2023-04-12T06:04:03.125Z,1.97
2023-04-12T06:07:05.845Z,1.70
2023-04-12T06:10:10.096Z,2.03
2023-04-12T06:13:12.772Z,2.33
2023-04-12T06:16:19.729Z,3.22
2023-04-12T06:19:22.164Z,1.88
2023-04-12T06:22:26.413Z,1.65
2023-04-12T06:25:28.884Z,1.57
2023-04-12T06:28:32.879Z,1.85
2023-04-12T06:31:35.465Z,3.45
2023-04-12T06:34:38.193Z,2.40
2023-04-12T06:37:47.160Z,2.30
2023-04-12T06:40:49.702Z,2.58
2023-04-12T06:43:52.105Z,3.13
2023-04-12T06:46:54.585Z,3.03
2023-04-12T06:49:58.212Z,3.00
2023-04-12T06:53:00.762Z,3.83
2023-04-12T06:56:06.364Z,4.03
2023-04-12T06:59:09.205Z,4.65
2023-04-12T07:02:12.113Z,5.60
2023-04-12T07:05:14.683Z,3.43
2023-04-12T07:08:17.179Z,3.08
2023-04-12T07:11:22.556Z,1.88
2023-04-12T07:14:25.674Z,6.00
2023-04-12T07:17:28.083Z,3.08
2023-04-12T07:20:30.529Z,3.63
2023-04-12T07:23:33.329Z,3.13
2023-04-12T07:26:36.124Z,2.83
2023-04-12T07:29:38.554Z,3.38
2023-04-12T07:32:41.160Z,2.60
2023-04-12T07:35:43.653Z,3.53
2023-04-12T07:38:46.200Z,4.28
2023-04-12T07:41:49.713Z,3.20
2023-04-12T07:44:52.417Z,3.67
2023-04-12T07:47:54.888Z,6.38
2023-04-12T07:50:57.432Z,3.70
2023-04-12T07:54:00.053Z,3.60
2023-04-12T07:57:03.813Z,4.33
2023-04-12T08:00:07.590Z,4.40
2023-04-12T08:03:17.093Z,6.18
2023-04-12T08:06:19.712Z,3.83
2023-04-12T08:09:22.282Z,3.30
2023-04-12T08:12:25.122Z,4.47
2023-04-12T08:15:27.651Z,5.18
2023-04-12T08:18:30.124Z,3.63
2023-04-12T08:21:33.710Z,4.90
2023-04-12T08:24:36.146Z,3.17
2023-04-12T08:27:50.014Z,3.67
2023-04-12T08:30:52.577Z,2.10
2023-04-12T08:33:56.535Z,2.83
2023-04-12T08:37:00.896Z,3.23
2023-04-12T08:40:09.774Z,2.47
2023-04-12T08:43:13.059Z,2.58
2023-04-12T08:46:16.944Z,3.72
2023-04-12T08:49:22.884Z,2.83
2023-04-12T08:52:25.481Z,3.85
2023-04-12T08:55:28.150Z,3.40
2023-04-12T08:58:31.342Z,2.33
2023-04-12T09:01:33.896Z,2.92
2023-04-12T09:04:48.599Z,2.75
2023-04-12T09:07:51.262Z,2.40
2023-04-12T09:10:53.700Z,3.58
2023-04-12T09:13:58.258Z,3.53
2023-04-12T09:17:01.705Z,3.10
2023-04-12T09:20:24.072Z,7.55
2023-04-12T09:23:26.846Z,4.70
2023-04-12T09:26:29.848Z,4.90
2023-04-12T09:29:33.291Z,4.27
2023-04-12T09:32:36.432Z,3.88
2023-04-12T09:35:39.241Z,4.50
2023-04-12T09:38:58.860Z,9.30
2023-04-12T09:42:18.169Z,6.75
2023-04-12T09:45:34.900Z,3.85
2023-04-12T09:48:39.556Z,5.47
2023-04-12T09:51:42.366Z,4.20
2023-04-12T09:54:46.921Z,5.80
2023-04-12T09:57:51.885Z,3.85
2023-04-12T10:00:57.131Z,11.30
2023-04-12T10:04:00.916Z,6.10
2023-04-12T10:07:03.991Z,5.28
2023-04-12T10:10:08.871Z,5.43
2023-04-12T10:13:12.860Z,6.35
2023-04-12T10:16:16.782Z,6.40
2023-04-12T10:19:19.542Z,6.68
2023-04-12T10:22:22.736Z,4.65
2023-04-12T10:25:27.028Z,5.43
2023-04-12T10:28:29.533Z,5.55
2023-04-12T10:31:35.025Z,7.17
2023-04-12T10:34:42.532Z,5.13
2023-04-12T10:38:11.114Z,6.10
2023-04-12T10:41:18.848Z,5.30
2023-04-12T10:44:26.364Z,5.30
2023-04-12T10:47:53.867Z,4.30
2023-04-12T10:51:33.314Z,4.13
2023-04-12T10:54:42.614Z,7.97
2023-04-12T10:57:49.408Z,5.47
2023-04-12T11:00:59.265Z,4.95
2023-04-12T11:04:31.392Z,4.50
2023-04-12T11:07:46.318Z,6.63
2023-04-12T11:11:23.823Z,5.53
2023-04-12T11:14:34.412Z,5.50
2023-04-12T11:17:37.921Z,4.90
2023-04-12T11:20:41.155Z,3.78
2023-04-12T11:23:43.856Z,3.97
2023-04-12T11:26:46.886Z,4.15
2023-04-12T11:29:55.747Z,3.72
2023-04-12T11:32:58.237Z,4.95
2023-04-12T11:36:04.961Z,3.70
2023-04-12T11:39:08.420Z,7.80
2023-04-12T11:42:16.248Z,3.78
2023-04-12T11:45:21.686Z,4.30
2023-04-12T11:48:25.092Z,5.53
2023-04-12T11:51:32.454Z,4.97
2023-04-12T11:54:35.429Z,4.43
2023-04-12T11:57:38.887Z,4.00
2023-04-12T12:00:46.005Z,4.38
2023-04-12T12:03:49.904Z,5.43
2023-04-12T12:06:53.267Z,3.97
2023-04-12T12:09:56.468Z,5.22
2023-04-12T12:12:59.704Z,4.88
2023-04-12T12:16:02.162Z,3.20
2023-04-12T12:19:05.189Z,5.22
2023-04-12T12:22:17.535Z,4.95
2023-04-12T12:25:20.320Z,5.65
2023-04-12T12:28:24.440Z,5.05
2023-04-12T12:31:28.438Z,10.57
2023-04-12T12:34:34.440Z,6.90
2023-04-12T12:37:36.902Z,3.20
2023-04-12T12:40:39.977Z,4.57
2023-04-12T12:43:49.529Z,4.65
2023-04-12T12:46:56.928Z,7.07
2023-04-12T12:50:03.387Z,4.63
2023-04-12T12:53:06.577Z,4.75
2023-04-12T12:56:13.699Z,7.28
2023-04-12T12:59:16.216Z,4.28
2023-04-12T13:02:19.853Z,4.05
2023-04-12T13:05:23.277Z,5.22
2023-04-12T13:08:26.728Z,4.50
2023-04-12T13:11:29.137Z,8.10
2023-04-12T13:14:31.673Z,11.27
2023-04-12T13:17:34.145Z,4.50
2023-04-12T13:20:36.552Z,3.72
2023-04-12T13:23:39.039Z,4.72
2023-04-12T13:26:41.478Z,5.85
2023-04-12T13:29:43.981Z,7.82
2023-04-12T13:32:46.800Z,3.83
2023-04-12T13:35:49.389Z,9.52
2023-04-12T13:38:52.047Z,4.03
2023-04-12T13:41:54.476Z,3.92
2023-04-12T13:44:57.224Z,5.72
2023-04-12T13:47:59.738Z,6.50
2023-04-12T13:51:02.996Z,3.28
2023-04-12T13:54:05.609Z,11.73
2023-04-12T13:57:08.159Z,6.38
2023-04-12T14:00:11.510Z,5.63
2023-04-12T14:03:14.571Z,5.30
2023-04-12T14:06:17.186Z,3.95
2023-04-12T14:09:30.725Z,4.07
2023-04-12T14:12:33.179Z,13.23
2023-04-12T14:15:35.628Z,13.52
2023-04-12T14:18:38.254Z,5.33
2023-04-12T14:21:41.097Z,3.55
2023-04-12T14:24:43.490Z,4.05
2023-04-12T14:27:45.997Z,8.00
2023-04-12T14:30:50.985Z,4.20
2023-04-12T14:33:53.914Z,3.20
2023-04-12T14:36:56.417Z,3.00
2023-04-12T14:39:58.961Z,3.00
2023-04-12T14:43:01.588Z,3.33
2023-04-12T14:46:04.158Z,4.65
2023-04-12T14:49:07.034Z,3.60
2023-04-12T14:52:09.585Z,3.10
2023-04-12T14:55:12.016Z,3.63
2023-04-12T14:58:14.543Z,3.17
2023-04-12T15:01:18.326Z,3.28
2023-04-12T15:04:21.076Z,5.07
2023-04-12T15:07:23.824Z,4.13
2023-04-12T15:10:26.359Z,3.93
2023-04-12T15:13:33.093Z,5.90
2023-04-12T15:16:38.194Z,4.53
2023-04-12T15:19:41.052Z,4.70
2023-04-12T15:22:43.869Z,4.28
2023-04-12T15:25:47.392Z,7.53
2023-04-12T15:28:49.926Z,4.20
2023-04-12T15:31:52.654Z,4.70
2023-04-12T15:34:56.212Z,7.43
2023-04-12T15:37:58.610Z,4.90
2023-04-12T15:41:01.890Z,10.47
2023-04-12T15:44:08.680Z,6.93
2023-04-12T15:47:12.219Z,6.32
2023-04-12T15:50:14.911Z,8.30
2023-04-12T15:53:20.475Z,6.50
2023-04-12T15:56:26.125Z,7.65
2023-04-12T15:59:30.030Z,5.72
2023-04-12T16:02:33.701Z,6.03
2023-04-12T16:05:36.480Z,5.18
2023-04-12T16:08:38.891Z,5.85
2023-04-12T16:11:41.305Z,5.67
2023-04-12T16:14:44.140Z,5.75
2023-04-12T16:17:48.176Z,4.43
2023-04-12T16:20:52.087Z,5.83
2023-04-12T16:23:54.564Z,5.63
2023-04-12T16:26:57.916Z,6.88
2023-04-12T16:30:02.907Z,8.07
2023-04-12T16:33:05.735Z,9.38
2023-04-12T16:36:09.411Z,8.60
2023-04-12T16:39:11.755Z,7.72
2023-04-12T16:42:15.678Z,8.60
2023-04-12T16:45:18.134Z,11.77
2023-04-12T16:48:22.827Z,16.85
2023-04-12T16:51:26.213Z,14.87
2023-04-12T16:54:28.712Z,7.80
2023-04-12T16:57:32.829Z,7.43
2023-04-12T17:00:36.063Z,13.43
2023-04-12T17:03:38.935Z,6.63
2023-04-12T17:06:42.952Z,8.63
2023-04-12T17:09:45.839Z,9.98
2023-04-12T17:12:58.431Z,9.53
2023-04-12T17:16:00.992Z,17.48
2023-04-12T17:19:03.895Z,18.25
2023-04-12T17:22:06.783Z,14.00
2023-04-12T17:25:12.483Z,12.00
2023-04-12T17:28:15.359Z,10.52
2023-04-12T17:31:20.927Z,8.95
2023-04-12T17:34:24.197Z,10.43
2023-04-12T17:37:30.047Z,13.18
2023-04-12T17:40:33.269Z,12.77
2023-04-12T17:43:35.832Z,16.13
2023-04-12T17:46:38.427Z,16.70
2023-04-12T17:49:41.945Z,15.15
2023-04-12T17:52:44.588Z,14.03
2023-04-12T17:55:48.900Z,12.63
2023-04-12T17:58:54.781Z,14.23
2023-04-12T18:01:58.116Z,15.02
2023-04-12T18:05:00.851Z,14.48
2023-04-12T18:08:03.512Z,16.00
2023-04-12T18:11:08.004Z,14.70
2023-04-12T18:14:11.916Z,16.67
2023-04-12T18:17:14.421Z,15.50
2023-04-12T18:20:17.426Z,16.10
2023-04-12T18:23:20.253Z,14.73
2023-04-12T18:26:23.219Z,13.63
2023-04-12T18:29:26.406Z,18.25
2023-04-12T18:32:29.771Z,12.43
2023-04-12T18:35:32.710Z,9.90
2023-04-12T18:38:36.173Z,14.05
2023-04-12T18:41:40.914Z,11.48
2023-04-12T18:44:44.715Z,10.60
2023-04-12T18:47:47.413Z,10.07
2023-04-12T18:50:50.138Z,15.27
2023-04-12T18:53:52.967Z,12.07
2023-04-12T18:56:57.901Z,10.38
2023-04-12T19:00:00.732Z,13.85
2023-04-12T19:03:03.733Z,14.73
2023-04-12T19:06:06.605Z,26.92
2023-04-12T19:09:09.137Z,15.23
2023-04-12T19:12:12.025Z,15.27
2023-04-12T19:15:14.695Z,12.40
2023-04-12T19:18:17.670Z,14.68
2023-04-12T19:21:20.707Z,10.52
2023-04-12T19:24:23.573Z,7.27
2023-04-12T19:27:27.142Z,14.82
2023-04-12T19:30:31.894Z,15.52
2023-04-12T19:33:35.292Z,14.13
2023-04-12T19:36:38.076Z,15.45
2023-04-12T19:39:41.211Z,15.07
2023-04-12T19:42:44.174Z,13.15
2023-04-12T19:45:47.353Z,13.30
2023-04-12T19:48:51.450Z,15.95
2023-04-12T19:51:54.454Z,17.20
2023-04-12T19:54:58.323Z,18.47
2023-04-12T19:58:01.890Z,17.10
2023-04-12T20:01:05.127Z,13.57
2023-04-12T20:04:09.665Z,11.25
2023-04-12T20:07:12.674Z,15.00
2023-04-12T20:10:15.742Z,18.20
2023-04-12T20:13:18.463Z,15.23
2023-04-12T20:16:20.876Z,16.50
2023-04-12T20:19:23.563Z,12.98
2023-04-12T20:22:26.309Z,13.48
2023-04-12T20:25:29.039Z,13.73
2023-04-12T20:28:31.750Z,15.93
2023-04-12T20:31:34.644Z,14.75
2023-04-12T20:34:37.333Z,14.27
2023-04-12T20:37:40.565Z,14.68
2023-04-12T20:40:43.296Z,13.10
2023-04-12T20:43:47.913Z,13.35
2023-04-12T20:46:51.010Z,12.10
2023-04-12T20:49:56.160Z,14.18
2023-04-12T20:52:59.217Z,12.82
2023-04-12T20:56:02.477Z,11.73
2023-04-12T20:59:04.948Z,12.88
2023-04-12T21:02:09.433Z,14.50
2023-04-12T21:05:16.998Z,14.98
2023-04-12T21:08:19.820Z,20.23
2023-04-12T21:11:22.248Z,16.70
2023-04-12T21:14:24.861Z,15.63
2023-04-12T21:17:27.392Z,12.70
2023-04-12T21:20:30.469Z,11.68
2023-04-12T21:23:33.250Z,16.00
2023-04-12T21:26:36.005Z,15.93
2023-04-12T21:29:41.528Z,13.80
2023-04-12T21:32:44.497Z,13.25
2023-04-12T21:35:47.157Z,14.38
2023-04-12T21:38:49.632Z,14.50
2023-04-12T21:41:52.122Z,12.82
2023-04-12T21:44:54.553Z,12.68
2023-04-12T21:47:56.932Z,12.50
2023-04-12T21:50:59.516Z,10.93
2023-04-12T21:54:01.942Z,11.43
2023-04-12T21:57:04.673Z,10.47
2023-04-12T22:00:10.010Z,11.57
2023-04-12T22:03:15.759Z,10.18
2023-04-12T22:06:20.241Z,8.65
2023-04-12T22:09:22.626Z,10.88
2023-04-12T22:12:25.679Z,10.48
2023-04-12T22:15:29.866Z,10.75
2023-04-12T22:18:32.232Z,35.37
2023-04-12T22:21:35.152Z,42.38
2023-04-12T22:24:38.799Z,40.75
2023-04-12T22:27:42.384Z,30.93
2023-04-12T22:30:46.902Z,24.42
2023-04-12T22:33:49.426Z,24.98
2023-04-12T22:36:52.102Z,29.83
2023-04-12T22:39:55.092Z,30.33
2023-04-12T22:42:58.102Z,30.30
2023-04-12T22:46:05.054Z,27.67
2023-04-12T22:49:07.785Z,28.57
2023-04-12T22:52:10.226Z,27.05
2023-04-12T22:55:14.335Z,18.98
2023-04-12T22:58:17.170Z,20.37
2023-04-12T23:01:21.535Z,18.55
2023-04-12T23:04:24.079Z,22.27
2023-04-12T23:07:29.878Z,19.98
2023-04-12T23:10:33.723Z,23.75
2023-04-12T23:13:36.822Z,17.77
2023-04-12T23:16:44.520Z,19.30
2023-04-12T23:19:46.959Z,15.57
2023-04-12T23:22:57.819Z,13.07
2023-04-12T23:26:00.970Z,22.65
2023-04-12T23:29:04.206Z,17.93
2023-04-12T23:32:06.556Z,15.38
2023-04-12T23:35:09.260Z,14.77
2023-04-12T23:38:15.747Z,14.00
2023-04-12T23:41:18.488Z,15.20
2023-04-12T23:44:20.892Z,14.07
2023-04-12T23:47:23.340Z,14.05
2023-04-12T23:50:26.209Z,13.27
2023-04-12T23:53:28.757Z,13.70
2023-04-12T23:56:31.700Z,13.00
2023-04-12T23:59:34.133Z,14.87
